Time;durP1;ratioP1;P1;durP2;ratioP2;P2;SDS_P1;SDS_P2;PMS_P1;PMS_P2;Temp;Humidity;BMP_temperature;BMP_pressure;BME280_temperature;BME280_humidity;BME280_pressure;Samples;Min_cycle;Max_cycle;Signal;HPM_P1;HPM_P2
2023/08/18 00:00:20;;;;;;;0.00;0.00;;;;;;;21.48;57.21;100796.06;7338575;19;20086;-57
2023/08/18 00:02:46;;;;;;;0.10;0.10;;;;;;;21.57;57.08;100796.41;7337015;19;20010;-57
2023/08/18 00:05:11;;;;;;;0.10;0.10;;;;;;;21.61;57.27;100800.56;7339551;19;20053;-58
2023/08/18 00:07:37;;;;;;;0.00;0.00;;;;;;;21.61;57.09;100801.41;7339626;19;20086;-57
2023/08/18 00:10:03;;;;;;;0.00;0.00;;;;;;;21.63;57.08;100814.59;7336867;19;20033;-57
2023/08/18 00:12:29;;;;;;;0.10;0.10;;;;;;;21.62;57.49;100818.22;7341325;19;20021;-58
2023/08/18 00:14:54;;;;;;;0.10;0.10;;;;;;;21.62;57.28;100808.44;7346499;19;20014;-58
2023/08/18 00:17:20;;;;;;;0.10;0.10;;;;;;;21.61;57.24;100805.88;7345730;19;20093;-57
2023/08/18 00:19:46;;;;;;;0.10;0.10;;;;;;;21.52;57.62;100801.19;7345489;19;20034;-57
2023/08/18 00:22:11;;;;;;;0.10;0.10;;;;;;;21.57;57.13;100815.84;7344766;19;20046;-58
2023/08/18 00:24:37;;;;;;;0.10;0.10;;;;;;;21.55;57.63;100812.47;7342888;19;20747;-58
2023/08/18 00:27:02;;;;;;;0.10;0.10;;;;;;;21.55;57.61;100808.97;7346944;19;20018;-57
2023/08/18 00:29:28;;;;;;;0.00;0.00;;;;;;;21.53;57.36;100803.72;7345833;19;20049;-58
2023/08/18 00:31:53;;;;;;;0.00;0.00;;;;;;;21.45;57.77;100795.44;7342010;19;20007;-57
2023/08/18 00:34:18;;;;;;;0.10;0.10;;;;;;;21.50;57.83;100806.59;7344895;19;20014;-55
2023/08/18 00:36:44;;;;;;;0.10;0.10;;;;;;;21.48;57.68;100806.69;7346328;19;20767;-57
2023/08/18 00:39:09;;;;;;;0.00;0.00;;;;;;;21.46;57.69;100803.28;7346414;19;21014;-57
2023/08/18 00:41:35;;;;;;;0.05;0.05;;;;;;;21.45;58.15;100808.72;7346127;19;20042;-57
2023/08/18 00:44:00;;;;;;;0.10;0.10;;;;;;;21.43;58.30;100800.81;7347793;19;20508;-58
2023/08/18 00:46:26;;;;;;;0.00;0.00;;;;;;;21.39;58.40;100795.81;7347520;19;20036;-59
2023/08/18 00:48:52;;;;;;;0.00;0.00;;;;;;;21.40;57.93;100793.06;7344868;19;20010;-57
2023/08/18 00:51:18;;;;;;;0.00;0.00;;;;;;;21.38;58.22;100789.66;7347618;19;20449;-57
2023/08/18 00:53:44;;;;;;;0.10;0.10;;;;;;;21.36;57.85;100788.91;7345646;19;20601;-57
2023/08/18 00:56:10;;;;;;;0.00;0.00;;;;;;;21.36;58.19;100788.06;7344946;19;20009;-58
2023/08/18 00:58:36;;;;;;;0.00;0.00;;;;;;;21.35;58.54;100789.88;7346722;19;20010;-57
2023/08/18 01:01:02;;;;;;;0.00;0.00;;;;;;;21.33;58.14;100797.06;7345717;19;20794;-57
2023/08/18 01:03:29;;;;;;;0.00;0.00;;;;;;;21.26;58.06;100779.81;7346314;19;20014;-57
2023/08/18 01:05:54;;;;;;;0.00;0.00;;;;;;;21.32;58.18;100790.06;7340920;19;20027;-57
2023/08/18 01:08:19;;;;;;;0.08;0.08;;;;;;;21.30;58.17;100786.66;7343392;19;20018;-57
2023/08/18 01:11:02;;;;;;;0.00;0.00;;;;;;;21.34;57.66;100788.19;7346642;19;20014;-56
2023/08/18 01:13:37;;;;;;;0.00;0.00;;;;;;;21.32;57.14;100779.44;7340682;19;20007;-57
2023/08/18 01:16:06;;;;;;;0.00;0.00;;;;;;;21.27;58.26;100778.84;7345732;19;20010;-57
2023/08/18 01:18:33;;;;;;;0.00;0.00;;;;;;;21.27;58.03;100770.88;7344267;19;20069;-58
2023/08/18 01:21:02;;;;;;;0.00;0.00;;;;;;;21.26;58.02;100771.84;7343624;19;20085;-58
2023/08/18 01:23:41;;;;;;;0.00;0.00;;;;;;;21.27;57.28;100778.84;7346255;19;20748;-57
2023/08/18 01:26:06;;;;;;;0.10;0.10;;;;;;;21.22;58.20;100773.00;7344600;19;20462;-57
2023/08/18 01:28:33;;;;;;;0.00;0.00;;;;;;;21.23;58.15;100777.34;7345573;19;20019;-58
2023/08/18 01:31:03;;;;;;;0.10;0.10;;;;;;;21.19;58.53;100767.91;7346173;19;20986;-57
2023/08/18 01:33:38;;;;;;;0.00;0.00;;;;;;;21.20;58.60;100762.50;7344419;19;20010;-57
2023/08/18 01:36:08;;;;;;;0.10;0.10;;;;;;;21.20;58.36;100758.97;7345122;19;20961;-57
2023/08/18 01:38:36;;;;;;;0.00;0.00;;;;;;;21.09;58.06;100738.44;7342853;19;20126;-57
2023/08/18 01:41:05;;;;;;;0.00;0.00;;;;;;;21.17;58.07;100754.72;7344550;19;20026;-58
2023/08/18 01:43:32;;;;;;;0.10;0.10;;;;;;;21.08;58.59;100744.69;7340561;19;20003;-57
2023/08/18 01:45:59;;;;;;;0.00;0.00;;;;;;;21.16;58.04;100754.81;7346020;19;20018;-57
2023/08/18 01:48:24;;;;;;;0.00;0.00;;;;;;;21.15;58.07;100745.16;7342611;19;20022;-57
2023/08/18 01:50:50;;;;;;;0.08;0.08;;;;;;;21.13;58.13;100744.38;7339283;19;20034;-58
2023/08/18 01:53:15;;;;;;;0.00;0.00;;;;;;;21.11;58.05;100748.97;7343221;19;20751;-57
2023/08/18 01:55:43;;;;;;;0.00;0.00;;;;;;;21.08;58.29;100739.38;7343758;19;20015;-57
2023/08/18 01:58:08;;;;;;;;;;;;;;;21.10;56.64;100741.97;7342091;19;20022;-57
2023/08/18 02:00:33;;;;;;;0.00;0.00;;;;;;;21.04;58.13;100737.06;7347801;19;19926;-56
2023/08/18 02:02:59;;;;;;;0.10;0.10;;;;;;;20.98;58.45;100738.28;7343932;19;20979;-57
2023/08/18 02:05:25;;;;;;;0.10;0.10;;;;;;;20.97;58.87;100756.00;7340214;19;20188;-57
2023/08/18 02:07:50;;;;;;;0.10;0.10;;;;;;;20.93;59.16;100751.00;7344219;19;20014;-57
2023/08/18 02:10:16;;;;;;;0.10;0.10;;;;;;;20.90;58.99;100749.41;7343258;19;20455;-57
2023/08/18 02:12:41;;;;;;;0.10;0.10;;;;;;;20.88;59.06;100748.69;7344603;19;20086;-58
2023/08/18 02:15:07;;;;;;;0.00;0.00;;;;;;;20.80;58.97;100735.03;7342442;19;20010;-57
2023/08/18 02:17:32;;;;;;;0.10;0.10;;;;;;;20.84;59.54;100747.16;7345347;19;20018;-57
2023/08/18 02:20:01;;;;;;;0.08;0.08;;;;;;;20.83;59.29;100760.50;7346300;19;20030;-57
2023/08/18 02:22:26;;;;;;;0.08;0.08;;;;;;;20.82;59.20;100759.66;7343626;19;20584;-57
2023/08/18 02:24:52;;;;;;;0.10;0.10;;;;;;;20.80;59.56;100756.28;7342090;19;20010;-58
2023/08/18 02:27:18;;;;;;;0.00;0.00;;;;;;;20.79;59.39;100757.22;7345597;19;20011;-57
2023/08/18 02:29:43;;;;;;;0.00;0.00;;;;;;;20.69;59.76;100742.84;7345336;19;20029;-57
2023/08/18 02:32:09;;;;;;;0.10;0.10;;;;;;;20.74;59.65;100751.38;7345213;19;20002;-57
2023/08/18 02:34:35;;;;;;;0.10;0.10;;;;;;;20.72;59.39;100748.78;7353507;19;20010;-57
2023/08/18 02:37:00;;;;;;;0.00;0.00;;;;;;;20.72;59.67;100742.63;7351744;19;20477;-55
2023/08/18 02:39:25;;;;;;;0.00;0.00;;;;;;;20.71;59.97;100735.63;7352318;19;20014;-58
2023/08/18 02:41:51;;;;;;;0.00;0.00;;;;;;;20.69;59.61;100743.69;7349438;19;20901;-56
2023/08/18 02:44:17;;;;;;;0.00;0.00;;;;;;;20.69;59.91;100742.84;7349727;19;20021;-56
2023/08/18 02:46:43;;;;;;;0.10;0.10;;;;;;;20.66;59.89;100743.03;7352434;19;20450;-56
2023/08/18 02:49:08;;;;;;;0.00;0.00;;;;;;;20.55;59.89;100719.00;7350667;19;20018;-57
2023/08/18 02:51:34;;;;;;;0.10;0.10;;;;;;;20.62;59.47;100730.91;7349676;19;20046;-57
2023/08/18 02:53:59;;;;;;;0.00;0.00;;;;;;;20.61;60.01;100739.81;7347828;19;20034;-56
2023/08/18 02:56:26;;;;;;;0.00;0.00;;;;;;;20.58;59.69;100729.38;7352046;19;20030;-57
2023/08/18 02:58:51;;;;;;;0.00;0.00;;;;;;;20.59;59.41;100731.13;7352033;19;20011;-57
2023/08/18 03:01:16;;;;;;;0.08;0.08;;;;;;;20.59;59.80;100736.44;7352688;19;20011;-57
2023/08/18 03:03:42;;;;;;;0.00;0.00;;;;;;;20.46;59.64;100715.97;7349131;19;20002;-57
2023/08/18 03:06:08;;;;;;;0.10;0.10;;;;;;;20.57;59.98;100738.31;7350103;19;20102;-57
2023/08/18 03:08:35;;;;;;;0.10;0.10;;;;;;;20.55;59.96;100734.91;7352539;19;20479;-58
2023/08/18 03:11:02;;;;;;;0.10;0.10;;;;;;;20.54;59.84;100738.53;7350153;19;20002;-57
2023/08/18 03:13:27;;;;;;;0.05;0.05;;;;;;;20.43;59.54;100713.50;7351006;19;20030;-56
2023/08/18 03:15:53;;;;;;;0.10;0.10;;;;;;;20.52;59.56;100724.47;7348419;19;20787;-57
2023/08/18 03:18:19;;;;;;;0.00;0.00;;;;;;;20.52;59.50;100719.19;7346697;19;20109;-57
2023/08/18 03:20:48;;;;;;;0.00;0.00;;;;;;;20.52;59.58;100724.47;7331553;19;20017;-57
2023/08/18 03:23:14;;;;;;;0.05;0.05;;;;;;;20.39;59.45;100703.16;7333630;19;20014;-57
2023/08/18 03:25:40;;;;;;;0.10;0.10;;;;;;;20.50;59.79;100721.09;7352958;19;20082;-58
2023/08/18 03:28:05;;;;;;;0.00;0.00;;;;;;;20.49;59.89;100719.38;7352268;19;20109;-57
2023/08/18 03:30:31;;;;;;;0.00;0.00;;;;;;;20.46;59.85;100721.28;7352023;19;20014;-57
2023/08/18 03:32:57;;;;;;;0.00;0.00;;;;;;;20.36;59.97;100704.19;7346668;19;20006;-55
2023/08/18 03:35:22;;;;;;;0.00;0.00;;;;;;;20.45;60.07;100719.53;7355409;19;20078;-57
2023/08/18 03:37:48;;;;;;;0.03;0.03;;;;;;;20.44;60.21;100723.16;7351641;19;20111;-57
2023/08/18 03:40:14;;;;;;;0.08;0.08;;;;;;;20.43;59.89;100717.94;7350746;19;20003;-56
2023/08/18 03:42:39;;;;;;;0.00;0.00;;;;;;;20.41;60.05;100710.06;7351904;19;20035;-58
2023/08/18 03:45:05;;;;;;;0.10;0.10;;;;;;;20.41;59.71;100715.38;7350558;19;20010;-57
2023/08/18 03:47:31;;;;;;;0.10;0.10;;;;;;;20.35;59.69;100702.50;7350045;19;20013;-57
2023/08/18 03:49:56;;;;;;;0.00;0.00;;;;;;;20.39;59.76;100703.16;7361422;19;20006;-57
2023/08/18 03:52:21;;;;;;;0.10;0.10;;;;;;;20.38;60.40;100702.31;7356306;19;20013;-58
2023/08/18 03:54:47;;;;;;;0.00;0.00;;;;;;;20.37;60.02;100697.94;7357757;19;20019;-57
2023/08/18 03:57:12;;;;;;;0.10;0.10;;;;;;;20.36;59.95;100693.59;7331460;19;20018;-57
2023/08/18 03:59:39;;;;;;;0.00;0.00;;;;;;;20.35;60.73;100681.28;7358744;19;20038;-57
2023/08/18 04:02:04;;;;;;;0.00;0.00;;;;;;;20.33;60.54;100667.28;7355082;19;20014;-57
2023/08/18 04:04:30;;;;;;;0.00;0.00;;;;;;;20.31;60.83;100679.78;7359071;19;20187;-56
2023/08/18 04:06:55;;;;;;;0.10;0.10;;;;;;;20.28;60.81;100680.00;7356937;19;20017;-57
2023/08/18 04:09:21;;;;;;;0.05;0.05;;;;;;;20.25;60.65;100677.53;7357765;19;20357;-58
2023/08/18 04:11:46;;;;;;;0.00;0.00;;;;;;;20.23;60.78;100682.09;7354333;19;20010;-57
2023/08/18 04:14:12;;;;;;;0.00;0.00;;;;;;;20.20;60.76;100683.13;7355729;19;20577;-57
2023/08/18 04:16:38;;;;;;;0.00;0.00;;;;;;;20.18;61.18;100684.16;7361372;19;20006;-57
2023/08/18 04:19:04;;;;;;;0.03;0.03;;;;;;;20.15;61.33;100676.41;7358743;19;20077;-57
2023/08/18 04:21:30;;;;;;;0.08;0.08;;;;;;;20.13;61.13;100680.97;7359088;19;20011;-58
2023/08/18 04:23:55;;;;;;;0.00;0.00;;;;;;;20.11;60.96;100682.84;7356262;19;20018;-57
2023/08/18 04:26:21;;;;;;;0.00;0.00;;;;;;;20.10;61.69;100675.84;7356397;19;20007;-57
2023/08/18 04:28:46;;;;;;;0.00;0.00;;;;;;;20.07;61.26;100671.59;7350009;19;20022;-56
2023/08/18 04:31:12;;;;;;;0.10;0.10;;;;;;;20.02;61.51;100667.50;7352654;19;20007;-57
2023/08/18 04:33:38;;;;;;;0.00;0.00;;;;;;;20.01;61.86;100660.50;7354638;19;20038;-58
2023/08/18 04:36:03;;;;;;;0.10;0.10;;;;;;;20.01;61.81;100671.09;7357113;19;20006;-57
2023/08/18 04:38:29;;;;;;;0.10;0.10;;;;;;;19.98;61.74;100672.16;7352494;19;20734;-57
2023/08/18 04:40:58;;;;;;;0.00;0.00;;;;;;;19.99;61.68;100667.72;7358806;19;20014;-57
2023/08/18 04:43:24;;;;;;;0.00;0.00;;;;;;;19.96;61.92;100668.72;7354346;19;20003;-57
2023/08/18 04:45:49;;;;;;;0.00;0.00;;;;;;;19.94;62.06;100665.34;7354078;19;20006;-56
2023/08/18 04:48:16;;;;;;;0.00;0.00;;;;;;;19.87;61.83;100656.94;7355073;19;20608;-57
2023/08/18 04:50:41;;;;;;;0.00;0.00;;;;;;;19.76;61.87;100629.38;7354883;19;21450;-56
2023/08/18 04:53:06;;;;;;;0.00;0.00;;;;;;;19.89;61.99;100649.72;7354680;19;20010;-57
2023/08/18 04:55:35;;;;;;;0.00;0.00;;;;;;;19.91;61.30;100641.66;7356066;19;20014;-57
2023/08/18 04:58:00;;;;;;;0.00;0.00;;;;;;;19.88;61.54;100634.78;7355727;19;20023;-55
2023/08/18 05:00:25;;;;;;;0.00;0.00;;;;;;;19.86;61.96;100633.16;7352537;19;20715;-57
2023/08/18 05:02:51;;;;;;;0.00;0.00;;;;;;;19.88;61.88;100639.22;7352077;19;20015;-56
2023/08/18 05:05:18;;;;;;;0.00;0.00;;;;;;;19.85;62.18;100634.97;7354843;19;20911;-58
2023/08/18 05:07:43;;;;;;;0.10;0.10;;;;;;;19.85;62.96;100645.56;7354549;19;20006;-57
2023/08/18 05:10:09;;;;;;;0.00;0.00;;;;;;;19.83;62.45;100636.88;7356796;19;20912;-57
2023/08/18 05:12:34;;;;;;;0.00;0.00;;;;;;;19.82;62.38;100636.94;7355454;19;20006;-57
2023/08/18 05:14:59;;;;;;;0.00;0.00;;;;;;;19.81;62.18;100635.25;7353242;19;20006;-57
2023/08/18 05:17:25;;;;;;;0.00;0.00;;;;;;;19.79;62.83;100632.69;7354996;19;20505;-57
2023/08/18 05:19:50;;;;;;;0.00;0.00;;;;;;;19.78;62.67;100636.28;7355535;19;20029;-57
2023/08/18 05:22:16;;;;;;;0.00;0.00;;;;;;;19.73;62.49;100625.13;7348694;19;20733;-57
2023/08/18 05:24:41;;;;;;;0.00;0.00;;;;;;;19.75;63.01;100633.81;7355997;19;20006;-57
2023/08/18 05:27:07;;;;;;;0.10;0.10;;;;;;;19.72;62.72;100628.72;7353817;19;20010;-57
2023/08/18 05:29:32;;;;;;;0.10;0.10;;;;;;;19.59;62.43;100611.84;7357297;19;20010;-56
2023/08/18 05:31:57;;;;;;;0.10;0.10;;;;;;;19.69;62.57;100634.22;7352583;19;20015;-57
2023/08/18 05:34:24;;;;;;;0.00;0.00;;;;;;;19.67;62.75;100631.66;7357260;19;21112;-57
2023/08/18 05:36:51;;;;;;;0.10;0.10;;;;;;;19.64;62.84;100633.63;7354981;19;20010;-57
2023/08/18 05:39:17;;;;;;;0.10;0.10;;;;;;;19.63;62.82;100618.69;7355765;19;20006;-55
2023/08/18 05:41:43;;;;;;;0.10;0.10;;;;;;;19.63;62.58;100616.06;7353577;19;20354;-57
2023/08/18 05:44:09;;;;;;;0.10;0.10;;;;;;;19.62;62.70;100622.31;7356236;19;20014;-58
2023/08/18 05:46:34;;;;;;;0.00;0.00;;;;;;;19.61;62.98;100615.28;7350101;19;20027;-57
2023/08/18 05:49:00;;;;;;;0.00;0.00;;;;;;;19.60;62.77;100610.94;7354561;19;20506;-57
2023/08/18 05:51:25;;;;;;;0.08;0.08;;;;;;;19.56;62.95;100602.28;7352471;19;20759;-57
2023/08/18 05:53:51;;;;;;;0.00;0.00;;;;;;;19.57;62.92;100608.47;7352250;19;20081;-57
2023/08/18 05:56:17;;;;;;;0.00;0.00;;;;;;;19.56;62.39;100601.44;7350341;19;20014;-57
2023/08/18 05:58:43;;;;;;;0.00;0.00;;;;;;;19.53;62.85;100599.00;7349808;19;20383;-56
2023/08/18 06:01:08;;;;;;;0.00;0.00;;;;;;;19.52;63.39;100598.13;7353159;19;20014;-57
2023/08/18 06:03:34;;;;;;;0.00;0.00;;;;;;;19.50;62.64;100596.50;7351277;19;20071;-57
2023/08/18 06:06:02;;;;;;;0.10;0.10;;;;;;;19.47;63.34;100594.06;7353183;19;20002;-56
2023/08/18 06:08:28;;;;;;;0.00;0.00;;;;;;;19.44;63.49;100590.66;7351426;19;21003;-57
2023/08/18 06:10:55;;;;;;;0.05;0.05;;;;;;;19.41;63.66;100588.22;7348012;19;20018;-57
2023/08/18 06:13:20;;;;;;;0.00;0.00;;;;;;;19.40;64.04;100601.53;7353366;19;20016;-58
2023/08/18 06:15:45;;;;;;;0.00;0.00;;;;;;;19.32;64.03;100604.66;7355109;19;20007;-57
2023/08/18 06:18:11;;;;;;;0.08;0.08;;;;;;;19.34;64.61;100612.50;7354031;19;20018;-56
2023/08/18 06:20:36;;;;;;;0.10;0.10;;;;;;;19.31;64.52;100610.91;7350533;19;20481;-57
2023/08/18 06:23:02;;;;;;;0.00;0.00;;;;;;;19.29;64.97;100609.28;7354350;19;20456;-57
2023/08/18 06:25:27;;;;;;;0.00;0.00;;;;;;;19.27;64.91;100606.72;7352011;19;20017;-57
2023/08/18 06:27:53;;;;;;;0.03;0.03;;;;;;;19.26;64.83;100607.69;7350707;19;20016;-57
2023/08/18 06:30:18;;;;;;;0.10;0.10;;;;;;;19.26;65.06;100609.44;7351662;19;20003;-56
2023/08/18 06:32:45;;;;;;;0.03;0.03;;;;;;;19.25;65.40;100610.41;7352483;19;20026;-57
2023/08/18 06:35:10;;;;;;;0.10;0.10;;;;;;;19.23;65.68;100615.78;7351368;19;20090;-57
2023/08/18 06:37:36;;;;;;;0.05;0.05;;;;;;;19.14;65.18;100597.81;7351717;19;20021;-57
2023/08/18 06:40:02;;;;;;;0.00;0.00;;;;;;;19.22;65.43;100622.03;7345800;19;20021;-57
2023/08/18 06:42:27;;;;;;;0.00;0.00;;;;;;;19.19;65.68;100608.97;7352075;19;20031;-56
2023/08/18 06:44:53;;;;;;;0.00;0.00;;;;;;;19.19;65.55;100620.41;7351065;19;20514;-57
2023/08/18 06:47:18;;;;;;;0.00;0.00;;;;;;;19.17;65.39;100611.72;7351450;19;20018;-57
2023/08/18 06:49:44;;;;;;;0.00;0.00;;;;;;;19.16;65.46;100615.31;7351765;19;20022;-58
2023/08/18 06:52:09;;;;;;;0.00;0.00;;;;;;;19.14;65.76;100611.03;7350693;19;20870;-57
2023/08/18 06:54:34;;;;;;;0.00;0.00;;;;;;;19.08;65.75;100600.81;7351237;19;20090;-57
2023/08/18 06:57:00;;;;;;;0.00;0.00;;;;;;;19.11;65.96;100605.91;7347523;19;20054;-56
2023/08/18 06:59:26;;;;;;;0.10;0.10;;;;;;;19.03;66.48;100594.94;7352073;19;20085;-57
2023/08/18 07:01:53;;;;;;;0.10;0.10;;;;;;;19.09;66.48;100598.06;7345395;19;20014;-56
2023/08/18 07:04:19;;;;;;;0.10;0.10;;;;;;;19.03;66.45;100587.00;7351171;19;20817;-56
2023/08/18 07:06:45;;;;;;;0.00;0.00;;;;;;;18.98;66.51;100589.09;7347152;19;20031;-57
2023/08/18 07:09:11;;;;;;;0.00;0.00;;;;;;;19.05;66.66;100612.44;7351072;19;20030;-58
2023/08/18 07:11:37;;;;;;;0.10;0.10;;;;;;;19.05;66.82;100606.28;7347427;19;20021;-57
2023/08/18 07:14:03;;;;;;;0.00;0.00;;;;;;;19.05;66.61;100608.94;7348232;19;20010;-57
2023/08/18 07:16:29;;;;;;;0.00;0.00;;;;;;;19.03;66.66;100608.19;7348423;19;20041;-57
2023/08/18 07:18:54;;;;;;;0.00;0.00;;;;;;;19.03;66.88;100606.38;7346423;19;20017;-57
2023/08/18 07:21:20;;;;;;;0.03;0.03;;;;;;;19.03;66.63;100614.34;7344377;19;20049;-57
2023/08/18 07:23:45;;;;;;;0.10;0.10;;;;;;;19.02;66.90;100606.50;7345627;19;20014;-57
2023/08/18 07:26:10;;;;;;;0.00;0.00;;;;;;;19.02;66.85;100591.47;7349009;19;20018;-57
2023/08/18 07:28:36;;;;;;;0.00;0.00;;;;;;;19.03;66.69;100592.31;7345293;19;20015;-57
2023/08/18 07:31:05;;;;;;;0.00;0.00;;;;;;;19.04;66.74;100600.16;7349325;19;20579;-57
2023/08/18 07:33:31;;;;;;;0.00;0.00;;;;;;;19.04;66.82;100592.22;7349431;19;20014;-57
2023/08/18 07:35:57;;;;;;;0.00;0.00;;;;;;;19.07;66.68;100588.53;7351330;19;20018;-55
2023/08/18 07:38:24;;;;;;;0.08;0.08;;;;;;;19.07;66.76;100589.38;7350834;19;20031;-57
2023/08/18 07:40:51;;;;;;;0.10;0.10;;;;;;;19.09;67.14;100591.94;7351637;19;20767;-56
2023/08/18 07:43:16;;;;;;;0.00;0.00;;;;;;;18.95;67.17;100557.50;7348678;19;20017;-57
2023/08/18 07:45:42;;;;;;;0.10;0.10;;;;;;;19.08;66.94;100574.34;7352180;19;20007;-57
2023/08/18 07:48:07;;;;;;;0.00;0.00;;;;;;;19.08;67.16;100579.66;7351111;19;20010;-57
2023/08/18 07:50:32;;;;;;;0.10;0.10;;;;;;;19.07;67.64;100576.16;7343539;19;20050;-57
2023/08/18 07:52:58;;;;;;;0.10;0.10;;;;;;;18.95;67.57;100566.28;7349026;19;20014;-57
2023/08/18 07:55:24;;;;;;;0.00;0.00;;;;;;;19.07;67.53;100580.59;7349544;19;20041;-57
2023/08/18 07:57:49;;;;;;;0.03;0.03;;;;;;;19.06;67.82;100573.56;7351003;19;20026;-57
2023/08/18 08:00:17;;;;;;;0.00;0.00;;;;;;;19.05;67.40;100571.88;7348876;19;20006;-57
2023/08/18 08:02:43;;;;;;;0.10;0.10;;;;;;;19.05;67.63;100575.38;7349155;19;20018;-57
2023/08/18 08:05:09;;;;;;;0.10;0.10;;;;;;;19.06;67.79;100574.47;7349524;19;20070;-57
2023/08/18 08:07:34;;;;;;;0.00;0.00;;;;;;;19.03;67.79;100576.44;7346562;19;20585;-56
2023/08/18 08:10:04;;;;;;;0.00;0.00;;;;;;;19.09;67.29;100586.63;7350424;19;20018;-57
2023/08/18 08:12:31;;;;;;;0.10;0.10;;;;;;;19.05;67.91;100595.69;7347619;19;20014;-58
2023/08/18 08:15:00;;;;;;;0.00;0.00;;;;;;;19.03;67.75;100595.81;7347817;19;20049;-57
2023/08/18 08:17:26;;;;;;;0.00;0.00;;;;;;;19.04;68.18;100604.59;7351350;19;20011;-57
2023/08/18 08:19:52;;;;;;;0.10;0.10;;;;;;;19.03;68.28;100602.91;7339829;19;20014;-57
2023/08/18 08:22:17;;;;;;;0.00;0.00;;;;;;;19.02;68.05;100593.25;7348015;19;20017;-57
2023/08/18 08:24:43;;;;;;;0.10;0.10;;;;;;;19.01;68.12;100600.34;7346964;19;20538;-57
2023/08/18 08:27:10;;;;;;;0.10;0.10;;;;;;;18.88;68.20;100573.75;7351057;19;20010;-57
2023/08/18 08:29:36;;;;;;;0.00;0.00;;;;;;;18.95;68.13;100586.59;7345825;19;20007;-57
2023/08/18 08:32:01;;;;;;;0.00;0.00;;;;;;;19.00;68.32;100597.78;7350554;19;20033;-57
2023/08/18 08:34:27;;;;;;;0.00;0.00;;;;;;;18.95;68.38;100589.25;7351808;19;20022;-57
2023/08/18 08:36:52;;;;;;;0.00;0.00;;;;;;;18.99;68.00;100601.38;7357408;19;20117;-57
2023/08/18 08:39:18;;;;;;;0.10;0.10;;;;;;;18.98;68.09;100583.78;7349786;19;20477;-57
2023/08/18 08:41:43;;;;;;;0.03;0.03;;;;;;;18.97;68.33;100582.09;7357108;19;20026;-57
2023/08/18 08:44:09;;;;;;;0.00;0.00;;;;;;;18.97;68.24;100576.81;7353605;19;20021;-57
2023/08/18 08:46:37;;;;;;;0.00;0.00;;;;;;;18.96;68.17;100575.06;7356601;19;20018;-57
2023/08/18 08:49:05;;;;;;;0.10;0.10;;;;;;;18.97;68.46;100577.66;7355091;19;20007;-57
2023/08/18 08:51:37;;;;;;;0.10;0.10;;;;;;;18.97;67.97;100572.34;7354649;19;20025;-57
2023/08/18 08:54:06;;;;;;;0.10;0.10;;;;;;;18.95;68.26;100568.09;7350060;19;20010;-55
2023/08/18 08:56:34;;;;;;;0.00;0.00;;;;;;;18.99;68.21;100574.91;7355834;19;20042;-57
2023/08/18 08:59:00;;;;;;;0.00;0.00;;;;;;;18.88;68.73;100568.47;7350746;19;20015;-58
2023/08/18 09:01:26;;;;;;;0.00;0.00;;;;;;;18.99;68.60;100585.50;7354642;19;20025;-57
2023/08/18 09:03:52;;;;;;;0.00;0.00;;;;;;;19.00;68.54;100587.19;7351345;19;20011;-55
2023/08/18 09:06:17;;;;;;;0.00;0.00;;;;;;;19.01;68.74;100588.88;7354664;19;20093;-57
2023/08/18 09:08:43;;;;;;;0.00;0.00;;;;;;;19.01;68.43;100599.47;7355932;19;20018;-59
2023/08/18 09:11:09;;;;;;;0.00;0.00;;;;;;;18.91;68.72;100576.22;7351844;19;20014;-56
2023/08/18 09:13:35;;;;;;;0.00;0.00;;;;;;;19.00;68.52;100588.03;7353305;19;20006;-56
2023/08/18 09:16:04;;;;;;;0.10;0.10;;;;;;;19.01;68.40;100567.72;7356140;19;20018;-56
2023/08/18 09:18:33;;;;;;;0.00;0.00;;;;;;;19.03;69.15;100557.91;7350282;19;20014;-57
2023/08/18 09:21:00;;;;;;;0.00;0.00;;;;;;;19.02;69.14;100564.16;7350921;19;20660;-56
2023/08/18 09:23:27;;;;;;;0.00;0.00;;;;;;;19.02;69.29;100583.53;7345965;19;20021;-56
2023/08/18 09:25:57;;;;;;;0.10;0.10;;;;;;;19.03;68.83;100587.88;7355094;19;20022;-57
2023/08/18 09:28:23;;;;;;;0.00;0.00;;;;;;;19.01;69.15;100575.66;7348685;19;20082;-57
2023/08/18 09:30:49;;;;;;;0.10;0.10;;;;;;;18.97;69.35;100571.50;7353878;19;20017;-57
2023/08/18 09:33:14;;;;;;;0.10;0.10;;;;;;;18.86;69.39;100554.47;7341802;19;20011;-57
2023/08/18 09:35:40;;;;;;;0.00;0.00;;;;;;;18.99;69.49;100569.59;7340898;19;20359;-57
2023/08/18 09:38:05;;;;;;;0.05;0.05;;;;;;;18.98;69.70;100567.91;7353381;19;20010;-58
2023/08/18 09:40:31;;;;;;;0.05;0.05;;;;;;;18.91;69.93;100547.13;7354951;19;20015;-57
2023/08/18 09:42:56;;;;;;;0.00;0.00;;;;;;;18.93;69.79;100550.50;7354263;19;20010;-58
2023/08/18 09:45:23;;;;;;;0.00;0.00;;;;;;;18.98;69.67;100546.75;7351368;19;20466;-56
2023/08/18 09:48:02;;;;;;;0.10;0.10;;;;;;;19.04;67.73;100549.88;7354881;19;20406;-57
2023/08/18 09:50:30;;;;;;;0.00;0.00;;;;;;;19.04;69.86;100544.56;7350252;19;20014;-57
2023/08/18 09:53:00;;;;;;;0.10;0.10;;;;;;;19.04;68.61;100538.44;7354665;19;20059;-55
2023/08/18 09:55:33;;;;;;;0.08;0.08;;;;;;;19.08;68.55;100526.72;7349434;19;20770;-57
2023/08/18 09:58:36;;;;;;;0.10;0.10;;;;;;;19.09;68.23;100525.75;7327365;19;20014;-56
2023/08/18 10:01:05;;;;;;;0.00;0.00;;;;;;;19.07;69.82;100532.97;7252843;19;2004273;-56
2023/08/18 10:03:31;;;;;;;0.10;0.10;;;;;;;18.92;70.40;100511.78;7351761;19;20019;-57
2023/08/18 10:05:58;;;;;;;0.08;0.08;;;;;;;19.06;69.99;100528.59;7344907;19;20010;-57
2023/08/18 10:08:26;;;;;;;0.10;0.10;;;;;;;19.05;70.49;100526.88;7349813;19;20011;-57
2023/08/18 10:10:51;;;;;;;0.00;0.00;;;;;;;19.05;70.66;100522.44;7347851;19;20638;-57
2023/08/18 10:13:18;;;;;;;0.00;0.00;;;;;;;19.06;70.18;100508.28;7344781;19;20006;-57
2023/08/18 10:15:44;;;;;;;0.10;0.10;;;;;;;19.07;70.44;100510.00;7349051;19;20007;-57
2023/08/18 10:18:11;;;;;;;0.10;0.10;;;;;;;19.10;70.55;100508.94;7343941;19;20017;-57
2023/08/18 10:20:49;;;;;;;0.08;0.08;;;;;;;19.16;68.82;100503.28;7348082;19;20472;-57
2023/08/18 10:23:14;;;;;;;0.10;0.10;;;;;;;19.13;70.80;100500.81;7352270;19;20018;-57
2023/08/18 10:25:40;;;;;;;0.00;0.00;;;;;;;19.15;70.32;100496.25;7352367;19;20027;-57
2023/08/18 10:28:06;;;;;;;0.10;0.10;;;;;;;19.17;70.63;100494.41;7351871;19;20003;-58
2023/08/18 10:30:31;;;;;;;0.00;0.00;;;;;;;19.18;70.85;100493.44;7350448;19;20013;-57
2023/08/18 10:33:03;;;;;;;0.00;0.00;;;;;;;19.19;70.86;100481.91;7350910;19;20034;-56
2023/08/18 10:35:29;;;;;;;0.10;0.10;;;;;;;19.18;70.60;100485.50;7351916;19;20371;-58
2023/08/18 10:37:55;;;;;;;0.03;0.03;;;;;;;19.23;70.56;100477.28;7351053;19;20009;-57
2023/08/18 10:40:25;;;;;;;0.10;0.10;;;;;;;19.25;70.24;100476.22;7351185;19;20022;-57
2023/08/18 10:42:53;;;;;;;0.00;0.00;;;;;;;19.24;70.38;100474.53;7352397;19;20362;-57
2023/08/18 10:45:23;;;;;;;0.00;0.00;;;;;;;19.28;69.93;100473.41;7352299;19;20043;-57
2023/08/18 10:47:49;;;;;;;0.10;0.10;;;;;;;19.27;70.07;100469.06;7352042;19;20030;-57
2023/08/18 10:50:14;;;;;;;0.10;0.10;;;;;;;19.30;69.62;100468.00;7351423;19;20825;-56
2023/08/18 10:52:41;;;;;;;0.00;0.00;;;;;;;19.32;69.95;100468.75;7350840;19;20026;-56
2023/08/18 10:55:07;;;;;;;0.00;0.00;;;;;;;19.23;70.24;100446.34;7349488;19;20082;-57
2023/08/18 10:57:33;;;;;;;0.00;0.00;;;;;;;19.34;70.03;100459.75;7349105;19;20117;-56
2023/08/18 10:59:59;;;;;;;0.10;0.10;;;;;;;19.38;70.28;100458.63;7352153;19;20024;-57
2023/08/18 11:02:25;;;;;;;0.10;0.10;;;;;;;19.42;70.27;100451.34;7350788;19;20600;-57
2023/08/18 11:04:51;;;;;;;0.03;0.03;;;;;;;19.45;70.30;100451.97;7350424;19;20017;-56
2023/08/18 11:07:19;;;;;;;0.00;0.00;;;;;;;19.49;69.95;100447.34;7350268;19;20014;-57
2023/08/18 11:09:44;;;;;;;;;;;;;;;19.56;67.75;100432.75;7351506;19;20010;-57
2023/08/18 11:12:10;;;;;;;0.10;0.10;;;;;;;19.55;69.73;100430.22;7351823;19;19950;-57
2023/08/18 11:14:35;;;;;;;0.05;0.05;;;;;;;19.57;69.69;100423.03;7351104;19;20011;-58
2023/08/18 11:17:01;;;;;;;0.10;0.10;;;;;;;19.58;69.61;100424.72;7349280;19;20007;-57
2023/08/18 11:19:26;;;;;;;0.10;0.10;;;;;;;19.61;69.41;100419.25;7315823;19;20010;-57
2023/08/18 11:21:51;;;;;;;0.00;0.00;;;;;;;19.63;69.72;100422.66;7351370;19;20005;-57